createdAt,value
2023-03-03T00:02:28.480Z,14.90
2023-03-03T00:04:55.824Z,15.43
2023-03-03T00:07:25.553Z,14.20
2023-03-03T00:09:52.284Z,14.73
2023-03-03T00:12:30.039Z,14.07
2023-03-03T00:14:57.226Z,14.70
2023-03-03T00:17:25.186Z,15.37
2023-03-03T00:19:55.443Z,13.70
2023-03-03T00:22:31.399Z,14.33
2023-03-03T00:25:25.492Z,14.13
2023-03-03T00:27:52.209Z,13.30
2023-03-03T00:30:26.500Z,14.40
2023-03-03T00:32:55.635Z,14.40
2023-03-03T00:35:27.009Z,13.90
2023-03-03T00:38:02.255Z,13.67
2023-03-03T00:40:36.177Z,13.90
2023-03-03T00:43:22.323Z,14.47
2023-03-03T00:45:56.520Z,13.67
2023-03-03T00:48:25.031Z,15.10
2023-03-03T00:50:59.975Z,15.13
2023-03-03T00:53:30.733Z,15.67
2023-03-03T00:55:58.163Z,15.10
2023-03-03T00:58:25.696Z,15.03
2023-03-03T01:00:54.957Z,15.20
2023-03-03T01:03:27.102Z,14.83
2023-03-03T01:05:54.602Z,13.77
2023-03-03T01:08:46.742Z,14.83
2023-03-03T01:11:20.352Z,15.73
2023-03-03T01:13:56.617Z,15.77
2023-03-03T01:16:24.046Z,16.70
2023-03-03T01:18:51.091Z,18.93
2023-03-03T01:21:25.123Z,19.10
2023-03-03T01:23:51.905Z,18.97
2023-03-03T01:26:18.722Z,18.30
2023-03-03T01:28:45.625Z,20.63
2023-03-03T01:31:12.948Z,20.47
2023-03-03T01:33:43.289Z,20.30
2023-03-03T01:36:10.108Z,20.10
2023-03-03T01:38:37.717Z,20.00
2023-03-03T01:41:04.989Z,20.97
2023-03-03T01:43:33.097Z,20.37
2023-03-03T01:45:59.783Z,20.03
2023-03-03T01:49:10.852Z,23.07
2023-03-03T01:51:43.784Z,22.73
2023-03-03T01:54:22.316Z,23.70
2023-03-03T01:56:49.344Z,24.60
2023-03-03T01:59:21.542Z,26.53
2023-03-03T02:01:49.021Z,26.33
2023-03-03T02:04:16.965Z,26.60
2023-03-03T02:06:53.093Z,24.97
2023-03-03T02:09:47.963Z,26.00
2023-03-03T02:12:18.752Z,26.33
2023-03-03T02:14:45.596Z,25.90
2023-03-03T02:17:12.352Z,27.87
2023-03-03T02:19:59.513Z,25.63
2023-03-03T02:22:35.591Z,23.30
2023-03-03T02:25:04.969Z,22.23
2023-03-03T02:27:32.456Z,22.53
2023-03-03T02:30:10.560Z,24.53
2023-03-03T02:32:37.702Z,22.13
2023-03-03T02:35:31.985Z,21.80
2023-03-03T02:38:24.945Z,20.97
2023-03-03T02:41:13.922Z,22.90
2023-03-03T02:44:17.279Z,22.30
2023-03-03T02:46:48.976Z,23.10
2023-03-03T02:49:20.289Z,22.83
2023-03-03T02:51:47.138Z,21.80
2023-03-03T02:54:18.443Z,22.33
2023-03-03T02:56:45.777Z,23.47
2023-03-03T02:59:12.509Z,22.30
2023-03-03T03:01:54.462Z,23.97
2023-03-03T03:04:23.703Z,22.30
2023-03-03T03:06:51.468Z,21.17
2023-03-03T03:09:22.394Z,22.37
2023-03-03T03:11:51.193Z,21.53
2023-03-03T03:14:21.798Z,20.90
2023-03-03T03:16:57.741Z,22.80
2023-03-03T03:19:24.497Z,21.67
2023-03-03T03:21:51.463Z,23.70
2023-03-03T03:24:21.435Z,23.60
2023-03-03T03:26:54.541Z,21.13
2023-03-03T03:29:22.631Z,20.70
2023-03-03T03:31:52.628Z,21.77
2023-03-03T03:34:19.307Z,22.73
2023-03-03T03:36:46.975Z,22.63
2023-03-03T03:39:15.870Z,21.70
2023-03-03T03:41:46.104Z,22.30
2023-03-03T03:44:13.299Z,23.10
2023-03-03T03:46:40.217Z,21.73
2023-03-03T03:49:07.868Z,20.70
2023-03-03T03:51:51.357Z,20.40
2023-03-03T03:54:26.726Z,20.50
2023-03-03T03:56:54.655Z,20.97
2023-03-03T03:59:22.334Z,19.70
2023-03-03T04:01:50.168Z,21.10
2023-03-03T04:04:17.755Z,20.60
2023-03-03T04:06:47.603Z,22.07
2023-03-03T04:09:14.251Z,24.00
2023-03-03T04:11:42.007Z,23.67
2023-03-03T04:14:10.209Z,23.87
2023-03-03T04:16:37.490Z,23.60
2023-03-03T04:19:07.272Z,23.43
2023-03-03T04:21:39.648Z,23.37
2023-03-03T04:24:09.799Z,24.30
2023-03-03T04:26:37.975Z,23.30
2023-03-03T04:29:08.294Z,21.90
2023-03-03T04:31:40.674Z,22.40
2023-03-03T04:34:09.610Z,24.30
2023-03-03T04:36:36.688Z,23.33
2023-03-03T04:39:03.645Z,23.67
2023-03-03T04:41:37.599Z,23.73
2023-03-03T04:44:10.615Z,22.90
2023-03-03T04:46:37.584Z,23.30
2023-03-03T04:49:11.388Z,22.97
2023-03-03T04:51:40.013Z,21.87
2023-03-03T04:54:10.658Z,25.30
2023-03-03T04:56:40.527Z,24.43
2023-03-03T04:59:08.384Z,23.13
2023-03-03T05:01:38.374Z,22.83
2023-03-03T05:04:14.965Z,23.13
2023-03-03T05:06:41.888Z,22.27
2023-03-03T05:09:09.704Z,21.90
2023-03-03T05:11:45.129Z,22.87
2023-03-03T05:14:12.630Z,21.20
2023-03-03T05:16:39.431Z,21.57
2023-03-03T05:19:15.266Z,22.87
2023-03-03T05:21:42.736Z,21.37
2023-03-03T05:24:14.153Z,21.60
2023-03-03T05:26:43.793Z,21.37
2023-03-03T05:29:10.501Z,23.00
2023-03-03T05:31:40.334Z,22.30
2023-03-03T05:34:18.016Z,22.97
2023-03-03T05:36:44.666Z,25.13
2023-03-03T05:39:11.337Z,24.50
2023-03-03T05:41:45.535Z,23.23
2023-03-03T05:44:12.976Z,20.97
2023-03-03T05:46:39.856Z,23.00
2023-03-03T05:49:27.565Z,23.80
2023-03-03T05:52:01.603Z,21.30
2023-03-03T05:54:28.320Z,22.87
2023-03-03T05:56:56.662Z,21.10
2023-03-03T05:59:34.992Z,22.37
2023-03-03T06:02:01.753Z,22.13
2023-03-03T06:04:28.490Z,21.73
2023-03-03T06:07:03.948Z,20.77
2023-03-03T06:09:30.659Z,20.13
2023-03-03T06:11:57.605Z,19.03
2023-03-03T06:14:26.887Z,19.40
2023-03-03T06:17:03.017Z,19.03
2023-03-03T06:19:29.762Z,17.77
2023-03-03T06:21:57.386Z,19.37
2023-03-03T06:25:50.745Z,17.40
2023-03-03T06:28:20.816Z,17.47
2023-03-03T06:30:59.855Z,18.20
2023-03-03T06:33:29.141Z,18.90
2023-03-03T06:35:56.032Z,17.87
2023-03-03T06:38:31.749Z,18.80
2023-03-03T06:40:58.676Z,19.10
2023-03-03T06:43:25.368Z,20.00
2023-03-03T06:45:52.046Z,19.53
2023-03-03T06:49:26.614Z,19.10
2023-03-03T06:51:53.468Z,17.77
2023-03-03T06:54:23.505Z,17.40
2023-03-03T06:57:58.465Z,17.20
2023-03-03T07:00:33.245Z,17.07
2023-03-03T07:03:26.943Z,16.87
2023-03-03T07:05:56.685Z,17.37
2023-03-03T07:08:24.380Z,15.60
2023-03-03T07:14:58.329Z,18.80
2023-03-03T07:17:30.534Z,19.60
2023-03-03T07:20:02.036Z,18.63
2023-03-03T07:22:31.070Z,19.27
2023-03-03T07:25:02.046Z,16.87
2023-03-03T07:27:31.588Z,15.67
2023-03-03T07:30:37.523Z,15.43
2023-03-03T07:33:52.481Z,16.20
2023-03-03T07:36:59.824Z,15.97
2023-03-03T07:39:38.450Z,18.33
2023-03-03T07:42:45.337Z,18.80
2023-03-03T07:46:30.135Z,17.27
2023-03-03T07:49:23.051Z,17.17
2023-03-03T07:51:55.118Z,18.37
2023-03-03T07:55:27.983Z,17.50
2023-03-03T08:02:35.112Z,22.37
2023-03-03T08:13:42.044Z,21.70
2023-03-03T08:16:14.879Z,21.73
2023-03-03T08:18:59.439Z,19.57
2023-03-03T08:21:26.994Z,20.80
2023-03-03T08:23:54.469Z,21.07
2023-03-03T08:26:51.937Z,23.33
2023-03-03T08:30:11.682Z,20.37
2023-03-03T08:32:38.664Z,21.57
2023-03-03T08:42:54.520Z,20.67
2023-03-03T09:10:27.484Z,20.17
2023-03-03T09:15:50.598Z,21.80
2023-03-03T09:27:59.883Z,22.80
2023-03-03T09:38:19.411Z,22.10
2023-03-03T09:45:54.944Z,24.13
2023-03-03T09:52:16.234Z,23.73
2023-03-03T09:54:47.101Z,23.07
2023-03-03T09:57:42.509Z,23.00
2023-03-03T10:00:33.892Z,22.83
2023-03-03T10:08:15.130Z,22.40
2023-03-03T10:11:03.647Z,20.23
2023-03-03T10:14:28.932Z,21.70
2023-03-03T10:17:18.180Z,20.60
2023-03-03T10:22:48.818Z,21.93
2023-03-03T10:25:48.401Z,21.50
2023-03-03T10:33:33.547Z,20.73
2023-03-03T10:40:00.108Z,22.37
2023-03-03T10:42:44.060Z,21.53
2023-03-03T10:45:48.399Z,20.87
2023-03-03T10:48:49.115Z,19.50
2023-03-03T10:51:28.430Z,18.37
2023-03-03T10:54:33.845Z,20.00
2023-03-03T10:57:13.096Z,20.17
2023-03-03T11:00:23.072Z,19.43
2023-03-03T11:03:02.731Z,21.23
2023-03-03T11:05:39.862Z,19.20
2023-03-03T11:08:34.734Z,19.70
2023-03-03T11:11:40.507Z,17.53
2023-03-03T11:14:11.206Z,15.90
2023-03-03T11:17:20.298Z,16.77
2023-03-03T11:20:02.292Z,16.93
2023-03-03T11:22:49.167Z,16.80
2023-03-03T11:25:50.969Z,16.20
2023-03-03T11:28:19.192Z,15.90
2023-03-03T11:31:31.317Z,16.00
2023-03-03T11:34:21.600Z,16.90
2023-03-03T11:37:07.709Z,16.83
2023-03-03T11:40:03.866Z,17.13
2023-03-03T11:42:47.594Z,16.17
2023-03-03T11:45:20.694Z,16.37
2023-03-03T11:48:22.819Z,15.80
2023-03-03T11:51:01.140Z,15.20
2023-03-03T11:53:52.981Z,14.63
2023-03-03T11:56:22.718Z,13.40
2023-03-03T11:59:21.711Z,13.47
2023-03-03T12:01:52.357Z,14.47
2023-03-03T12:04:34.558Z,14.93
2023-03-03T12:07:20.132Z,15.20
2023-03-03T12:10:51.075Z,14.30
2023-03-03T12:13:27.381Z,15.00
2023-03-03T12:16:04.524Z,14.33
2023-03-03T12:18:34.149Z,15.30
2023-03-03T12:21:33.346Z,15.30
2023-03-03T12:24:28.041Z,15.20
2023-03-03T12:27:02.606Z,14.90
2023-03-03T12:30:13.789Z,13.90
2023-03-03T12:32:48.259Z,13.80
2023-03-03T12:35:20.869Z,13.80
2023-03-03T12:37:56.613Z,13.10
2023-03-03T12:40:51.378Z,13.77
2023-03-03T12:43:41.751Z,13.27
2023-03-03T12:46:14.652Z,13.50
2023-03-03T12:48:45.640Z,13.63
2023-03-03T12:51:27.295Z,13.60
2023-03-03T12:54:16.085Z,13.27
2023-03-03T12:57:09.429Z,13.00
2023-03-03T13:00:01.151Z,14.50
2023-03-03T13:03:07.570Z,14.00
2023-03-03T13:06:06.800Z,14.20
2023-03-03T13:08:51.807Z,14.60
2023-03-03T13:11:24.584Z,13.17
2023-03-03T13:14:28.821Z,13.90
2023-03-03T13:17:22.880Z,12.80
2023-03-03T13:20:01.533Z,14.07
2023-03-03T13:22:50.556Z,12.97
2023-03-03T13:28:33.724Z,14.47
2023-03-03T13:31:15.591Z,13.23
2023-03-03T13:33:55.043Z,13.87
2023-03-03T13:36:46.199Z,14.03
2023-03-03T13:39:34.625Z,12.73
2023-03-03T13:42:22.887Z,13.30
2023-03-03T13:44:50.652Z,13.33
2023-03-03T13:47:38.929Z,12.60
2023-03-03T13:50:27.718Z,12.47
2023-03-03T13:53:04.168Z,12.43
2023-03-03T13:55:49.011Z,12.00
2023-03-03T13:58:35.516Z,12.63
2023-03-03T14:02:00.580Z,12.67
2023-03-03T14:04:58.236Z,12.93
2023-03-03T14:07:50.253Z,13.23
2023-03-03T14:10:21.903Z,13.40
2023-03-03T14:13:03.627Z,12.60
2023-03-03T14:15:38.949Z,12.53
2023-03-03T14:18:20.855Z,13.17
2023-03-03T14:20:50.296Z,13.10
2023-03-03T14:23:21.755Z,13.53
2023-03-03T14:25:51.454Z,13.03
2023-03-03T14:28:20.813Z,12.40
2023-03-03T14:30:48.073Z,13.70
2023-03-03T14:33:28.050Z,14.90
2023-03-03T14:35:58.093Z,17.17
2023-03-03T14:38:36.914Z,15.67
2023-03-03T14:41:13.654Z,14.97
2023-03-03T14:43:46.327Z,14.17
2023-03-03T14:46:29.165Z,13.27
2023-03-03T14:49:13.876Z,13.87
2023-03-03T14:51:53.782Z,13.30
2023-03-03T14:54:35.648Z,13.67
2023-03-03T14:57:31.228Z,13.50
2023-03-03T15:00:06.815Z,14.23
2023-03-03T15:02:45.825Z,16.40
2023-03-03T15:05:27.625Z,15.03
2023-03-03T15:08:03.900Z,15.53
2023-03-03T15:10:35.961Z,16.13
2023-03-03T15:13:20.994Z,14.80
2023-03-03T15:15:59.944Z,14.40
2023-03-03T15:18:32.451Z,18.43
2023-03-03T15:21:12.547Z,16.57
2023-03-03T15:23:55.197Z,17.40
2023-03-03T15:26:40.016Z,17.90
2023-03-03T15:29:16.597Z,16.40
2023-03-03T15:32:16.468Z,15.03
2023-03-03T15:34:50.636Z,14.00
2023-03-03T15:37:44.720Z,17.77
2023-03-03T15:40:15.598Z,16.00
2023-03-03T15:42:56.317Z,16.83
2023-03-03T15:46:02.406Z,16.37
2023-03-03T15:49:06.163Z,15.40
2023-03-03T15:52:03.836Z,16.27
2023-03-03T15:54:42.763Z,15.10
2023-03-03T15:57:24.481Z,16.00
2023-03-03T16:00:16.227Z,14.63
2023-03-03T16:02:58.427Z,14.87
2023-03-03T16:05:37.779Z,16.83
2023-03-03T16:08:19.140Z,17.07
2023-03-03T16:11:09.708Z,16.30
2023-03-03T16:13:53.761Z,16.27
2023-03-03T16:16:58.722Z,15.57
2023-03-03T16:19:28.261Z,15.63
2023-03-03T16:22:00.871Z,15.70
2023-03-03T16:24:45.756Z,17.30
2023-03-03T16:27:50.876Z,15.73
2023-03-03T16:30:34.494Z,14.93
2023-03-03T16:33:23.148Z,14.60
2023-03-03T16:36:01.877Z,14.33
2023-03-03T16:38:52.156Z,15.73
2023-03-03T16:41:39.713Z,15.13
2023-03-03T16:44:45.180Z,14.20
2023-03-03T16:47:30.006Z,14.87
2023-03-03T16:50:18.011Z,15.30
2023-03-03T16:52:54.043Z,15.33
2023-03-03T16:55:49.222Z,14.80
2023-03-03T16:58:56.862Z,13.53
2023-03-03T17:01:48.402Z,14.97
2023-03-03T17:04:34.992Z,16.30
2023-03-03T17:07:23.509Z,16.70
2023-03-03T17:10:06.376Z,16.97
2023-03-03T17:12:58.196Z,15.77
2023-03-03T17:15:36.288Z,15.73
2023-03-03T17:18:15.284Z,14.80
2023-03-03T17:20:46.655Z,15.83
2023-03-03T17:23:41.338Z,17.30
2023-03-03T17:26:17.078Z,15.30
2023-03-03T17:29:15.134Z,16.50
2023-03-03T17:32:01.049Z,16.17
2023-03-03T17:34:50.914Z,16.90
2023-03-03T17:37:23.867Z,15.93
2023-03-03T17:40:11.596Z,15.17
2023-03-03T17:42:45.437Z,15.07
2023-03-03T17:45:14.797Z,16.60
2023-03-03T17:48:22.799Z,15.40
2023-03-03T17:51:44.702Z,16.27
2023-03-03T17:54:29.609Z,16.27
2023-03-03T17:57:29.129Z,16.73
2023-03-03T18:00:19.273Z,16.47
2023-03-03T18:03:17.581Z,15.90
2023-03-03T18:06:09.188Z,17.57
2023-03-03T18:09:15.122Z,16.80
2023-03-03T18:12:09.110Z,18.17
2023-03-03T18:14:54.138Z,15.97
2023-03-03T18:17:43.998Z,14.90
2023-03-03T18:20:42.197Z,17.67
2023-03-03T18:23:27.997Z,15.93
2023-03-03T18:25:59.597Z,15.50
2023-03-03T18:29:16.315Z,15.47
2023-03-03T18:31:57.343Z,16.00
2023-03-03T18:34:36.893Z,17.70
2023-03-03T18:37:38.045Z,15.77
2023-03-03T18:40:04.851Z,16.57
2023-03-03T18:42:38.113Z,16.97
2023-03-03T18:45:20.426Z,14.67
2023-03-03T18:48:00.706Z,16.80
2023-03-03T18:50:34.281Z,16.07
2023-03-03T18:53:31.560Z,15.73
2023-03-03T18:56:00.581Z,13.30
2023-03-03T18:58:31.790Z,14.70
2023-03-03T19:01:18.111Z,15.63
2023-03-03T19:03:47.669Z,16.03
2023-03-03T19:06:39.039Z,16.80
2023-03-03T19:09:17.897Z,15.23
2023-03-03T19:11:53.190Z,16.63
2023-03-03T19:14:28.958Z,18.07
2023-03-03T19:16:57.328Z,18.03
2023-03-03T19:19:33.654Z,19.83
2023-03-03T19:22:29.711Z,20.87
2023-03-03T19:25:26.511Z,20.40
2023-03-03T19:28:19.466Z,19.90
2023-03-03T19:31:05.534Z,19.60
2023-03-03T19:33:56.729Z,19.47
2023-03-03T19:36:38.114Z,15.17
2023-03-03T19:39:10.233Z,16.07
2023-03-03T19:41:40.024Z,18.80
2023-03-03T19:44:15.692Z,13.93
2023-03-03T19:47:13.949Z,12.77
2023-03-03T19:50:05.134Z,9.83
2023-03-03T19:52:44.015Z,8.53
2023-03-03T19:55:23.265Z,7.90
2023-03-03T19:58:10.184Z,7.63
2023-03-03T20:01:24.971Z,7.47
2023-03-03T20:04:33.600Z,6.37
2023-03-03T20:07:27.105Z,5.77
2023-03-03T20:10:15.668Z,5.80
2023-03-03T20:13:16.593Z,5.47
2023-03-03T20:16:15.114Z,5.03
2023-03-03T20:19:08.394Z,4.67
2023-03-03T20:21:41.965Z,4.50
2023-03-03T20:24:20.738Z,4.87
2023-03-03T20:27:19.882Z,4.53
2023-03-03T20:30:08.203Z,4.90
2023-03-03T20:32:59.114Z,5.10
2023-03-03T20:35:32.711Z,4.33
2023-03-03T20:38:13.246Z,4.20
2023-03-03T20:41:02.021Z,4.23
2023-03-03T20:44:01.126Z,4.37
2023-03-03T20:46:41.749Z,4.00
2023-03-03T20:49:28.993Z,3.60
2023-03-03T20:52:00.445Z,4.13
2023-03-03T20:55:01.683Z,4.63
2023-03-03T20:57:46.997Z,4.10
2023-03-03T21:00:21.185Z,4.00
2023-03-03T21:03:17.333Z,5.30
2023-03-03T21:06:15.854Z,4.80
2023-03-03T21:08:44.908Z,5.90
2023-03-03T21:11:13.744Z,5.50
2023-03-03T21:13:48.173Z,4.83
2023-03-03T21:16:21.020Z,4.60
2023-03-03T21:18:59.937Z,4.40
2023-03-03T21:21:29.263Z,4.70
2023-03-03T21:24:03.717Z,4.70
2023-03-03T21:26:52.177Z,5.00
2023-03-03T21:29:33.580Z,4.90
2023-03-03T21:32:01.479Z,4.90
2023-03-03T21:34:32.445Z,5.70
2023-03-03T21:37:05.392Z,4.60
2023-03-03T21:39:46.235Z,4.83
2023-03-03T21:42:15.091Z,5.20
2023-03-03T21:44:46.829Z,5.00
2023-03-03T21:47:18.074Z,4.67
2023-03-03T21:49:46.581Z,4.30
2023-03-03T21:52:16.339Z,5.10
2023-03-03T21:54:46.888Z,4.80
2023-03-03T21:57:13.852Z,5.03
2023-03-03T21:59:41.062Z,4.20
2023-03-03T22:02:08.510Z,5.30
2023-03-03T22:04:35.528Z,4.70
2023-03-03T22:07:10.130Z,4.77
2023-03-03T22:09:37.541Z,4.97
2023-03-03T22:12:07.066Z,3.90
2023-03-03T22:14:36.155Z,4.33
2023-03-03T22:17:03.255Z,4.67
2023-03-03T22:19:29.935Z,4.20
2023-03-03T22:21:56.640Z,4.70
2023-03-03T22:24:23.324Z,4.83
2023-03-03T22:26:58.932Z,4.23
2023-03-03T22:29:25.838Z,4.47
2023-03-03T22:31:52.431Z,4.60
2023-03-03T22:34:19.387Z,4.00
2023-03-03T22:36:53.356Z,4.50
2023-03-03T22:39:20.077Z,4.50
2023-03-03T22:41:46.833Z,4.70
2023-03-03T22:44:13.528Z,4.30
2023-03-03T22:46:43.147Z,4.13
2023-03-03T22:49:12.675Z,3.90
2023-03-03T22:51:44.641Z,4.53
2023-03-03T22:54:18.924Z,4.97
2023-03-03T22:56:45.682Z,4.60
2023-03-03T22:59:12.422Z,4.30
2023-03-03T23:01:47.695Z,4.53
2023-03-03T23:04:14.468Z,4.43
2023-03-03T23:06:45.028Z,3.77
2023-03-03T23:09:16.606Z,4.60
2023-03-03T23:11:43.376Z,3.83
2023-03-03T23:14:10.050Z,3.70
2023-03-03T23:16:36.702Z,4.03
2023-03-03T23:19:03.430Z,4.90
2023-03-03T23:21:32.834Z,3.83
2023-03-03T23:24:01.623Z,4.77
2023-03-03T23:26:28.238Z,4.03
2023-03-03T23:28:54.915Z,3.67
2023-03-03T23:31:21.616Z,4.13
2023-03-03T23:33:55.560Z,3.97
2023-03-03T23:36:22.453Z,3.70
2023-03-03T23:38:49.179Z,3.80
2023-03-03T23:41:15.877Z,4.37
2023-03-03T23:43:42.511Z,3.67
2023-03-03T23:46:12.564Z,3.67
2023-03-03T23:48:39.212Z,4.13
2023-03-03T23:51:06.044Z,4.07
2023-03-03T23:53:32.800Z,3.80
2023-03-03T23:55:59.429Z,3.50
2023-03-03T23:58:31.321Z,3.80
